Time;durP1;ratioP1;P1;durP2;ratioP2;P2;SDS_P1;SDS_P2;PMS_P1;PMS_P2;Temp;Humidity;BMP_temperature;BMP_pressure;BME280_temperature;BME280_humidity;BME280_pressure;Samples;Min_cycle;Max_cycle;Signal;HPM_P1;HPM_P2
2023/06/12 00:02:41;;;;;;;7.95;4.43;;;20.40;71.40;;;;;;6251016;28;20042;-81
2023/06/12 00:05:44;;;;;;;7.63;4.70;;;20.40;70.30;;;;;;6251124;28;20052;-80
2023/06/12 00:08:46;;;;;;;7.60;4.80;;;20.50;70.30;;;;;;6250162;28;20049;-80
2023/06/12 00:11:49;;;;;;;8.68;4.78;;;20.50;70.30;;;;;;6258902;28;20045;-80
2023/06/12 00:14:51;;;;;;;6.65;4.75;;;20.60;71.60;;;;;;6261332;28;20049;-80
2023/06/12 00:17:53;;;;;;;7.25;4.60;;;20.60;70.10;;;;;;6262578;28;20053;-80
2023/06/12 00:20:55;;;;;;;8.73;5.47;;;20.70;70.20;;;;;;6250815;28;20060;-80
2023/06/12 00:23:57;;;;;;;7.20;5.13;;;20.70;70.20;;;;;;6258946;28;20069;-81
2023/06/12 00:27:00;;;;;;;8.15;5.22;;;20.60;70.60;;;;;;6250214;28;20050;-80
2023/06/12 00:30:02;;;;;;;6.28;4.78;;;20.50;70.90;;;;;;6259665;28;20056;-80
2023/06/12 00:33:04;;;;;;;8.15;4.85;;;20.50;71.70;;;;;;6250801;28;20091;-80
2023/06/12 00:36:06;;;;;;;6.57;4.53;;;20.50;71.30;;;;;;6249824;28;20638;-79
2023/06/12 00:39:08;;;;;;;7.38;4.88;;;20.40;73.00;;;;;;6249643;28;20534;-79
2023/06/12 00:42:11;;;;;;;6.47;4.50;;;20.20;72.90;;;;;;6249732;28;20488;-80
2023/06/12 00:45:14;;;;;;;7.82;5.15;;;20.10;73.90;;;;;;6250146;28;20061;-80
2023/06/12 00:48:17;;;;;;;6.17;4.40;;;20.10;73.60;;;;;;6249729;28;20076;-79
2023/06/12 00:51:18;;;;;;;6.68;4.70;;;20.10;73.70;;;;;;6266779;28;20041;-79
2023/06/12 00:54:20;;;;;;;7.95;4.97;;;20.10;74.00;;;;;;6265273;28;20047;-80
2023/06/12 00:57:23;;;;;;;6.78;5.07;;;19.90;74.20;;;;;;6252546;28;20403;-79
2023/06/12 01:00:25;;;;;;;7.22;5.18;;;19.90;72.70;;;;;;6249801;28;20487;-80
2023/06/12 01:03:27;;;;;;;7.20;5.43;;;19.90;73.30;;;;;;6248988;28;20045;-80
2023/06/12 01:06:40;;;;;;;7.43;4.97;;;19.80;72.90;;;;;;6249489;28;20056;-80
2023/06/12 01:10:01;;;;;;;7.93;5.13;;;19.80;73.80;;;;;;6249868;28;20491;-79
2023/06/12 01:13:06;;;;;;;7.22;5.45;;;19.90;74.40;;;;;;6249050;28;20045;-79
2023/06/12 01:16:08;;;;;;;7.85;5.22;;;19.70;73.90;;;;;;6249075;28;20049;-79
2023/06/12 01:19:10;;;;;;;8.57;5.47;;;19.70;73.70;;;;;;6249195;28;20045;-78
2023/06/12 01:22:16;;;;;;;6.40;4.72;;;19.60;73.90;;;;;;6249314;28;20404;-78
2023/06/12 01:26:02;;;;;;;9.02;5.38;;;19.60;74.50;;;;;;6246508;28;20045;-79
2023/06/12 01:30:10;;;;;;;8.13;4.93;;;19.60;74.40;;;;;;6231810;28;20403;-79
2023/06/12 01:33:18;;;;;;;6.28;5.00;;;19.50;74.40;;;;;;6232153;28;20076;-79
2023/06/12 01:36:24;;;;;;;6.00;4.75;;;19.50;76.10;;;;;;6249491;28;20107;-79
2023/06/12 01:39:29;;;;;;;7.88;5.32;;;19.40;74.70;;;;;;6249287;28;20054;-79
2023/06/12 01:42:32;;;;;;;8.18;5.40;;;19.50;74.60;;;;;;6248633;28;20064;-80
2023/06/12 01:45:34;;;;;;;6.65;5.03;;;19.50;74.90;;;;;;6249570;28;20053;-80
2023/06/12 01:48:39;;;;;;;8.18;5.57;;;19.40;76.00;;;;;;6238756;28;20416;-81
2023/06/12 01:51:40;;;;;;;6.32;4.90;;;19.50;74.80;;;;;;6262743;28;20510;-80
2023/06/12 01:54:45;;;;;;;7.88;5.28;;;19.40;75.40;;;;;;6249042;28;20049;-79
2023/06/12 01:57:48;;;;;;;8.02;5.57;;;19.50;75.40;;;;;;6247715;28;20045;-79
2023/06/12 02:00:53;;;;;;;9.15;5.07;;;19.40;75.60;;;;;;6246379;28;20510;-80
2023/06/12 02:03:56;;;;;;;7.93;5.13;;;19.30;76.40;;;;;;6248737;28;20052;-79
2023/06/12 02:06:58;;;;;;;7.57;4.65;;;19.20;76.30;;;;;;6247927;28;20041;-80
2023/06/12 02:10:00;;;;;;;6.18;4.80;;;19.10;76.90;;;;;;6248264;28;20053;-80
2023/06/12 02:13:02;;;;;;;8.50;5.20;;;19.00;76.90;;;;;;6248549;28;20049;-80
2023/06/12 02:16:06;;;;;;;6.05;4.78;;;19.00;77.20;;;;;;6259989;28;20174;-80
2023/06/12 02:19:09;;;;;;;7.40;5.05;;;19.00;77.70;;;;;;6268561;28;20057;-81
2023/06/12 02:22:11;;;;;;;7.22;5.28;;;19.00;77.20;;;;;;6247775;28;20506;-81
2023/06/12 02:25:13;;;;;;;9.10;4.85;;;19.00;77.30;;;;;;6249178;28;20060;-81
2023/06/12 02:28:15;;;;;;;6.97;5.07;;;19.00;77.30;;;;;;6249893;28;20052;-80
2023/06/12 02:31:17;;;;;;;7.50;5.53;;;19.00;77.60;;;;;;6247931;28;20049;-80
2023/06/12 02:34:20;;;;;;;8.80;5.40;;;18.90;78.00;;;;;;6247737;28;20046;-80
2023/06/12 02:37:22;;;;;;;9.02;4.88;;;18.90;78.30;;;;;;6244333;28;20054;-80
2023/06/12 02:40:24;;;;;;;7.88;5.20;;;18.90;79.20;;;;;;6247079;28;20052;-80
2023/06/12 02:43:26;;;;;;;6.85;4.57;;;18.90;78.80;;;;;;6251677;28;20514;-80
2023/06/12 02:46:27;;;;;;;6.97;4.93;;;18.90;79.60;;;;;;6247370;28;20052;-80
2023/06/12 02:49:31;;;;;;;8.38;5.25;;;18.90;79.00;;;;;;6247354;28;20501;-81
2023/06/12 02:52:33;;;;;;;;;;;18.90;78.80;;;;;;6248837;28;20041;-82
2023/06/12 02:55:39;;;;;;;6.93;5.28;;;18.70;80.50;;;;;;6247258;28;19921;-80
2023/06/12 02:58:41;;;;;;;7.20;5.18;;;18.80;80.20;;;;;;6248063;28;20061;-81
2023/06/12 03:01:44;;;;;;;8.93;5.45;;;18.70;79.40;;;;;;6247524;28;20048;-81
2023/06/12 03:04:47;;;;;;;8.07;5.38;;;18.70;79.20;;;;;;6247710;28;20054;-80
2023/06/12 03:07:51;;;;;;;7.20;5.13;;;18.70;80.40;;;;;;6246936;28;20133;-78
2023/06/12 03:10:53;;;;;;;9.85;5.70;;;18.60;80.30;;;;;;6246989;28;20041;-80
2023/06/12 03:13:55;;;;;;;8.23;5.05;;;18.60;81.50;;;;;;6252755;28;20053;-80
2023/06/12 03:16:57;;;;;;;7.07;5.32;;;18.60;81.70;;;;;;6246352;28;20410;-79
2023/06/12 03:20:00;;;;;;;8.30;5.22;;;18.60;80.90;;;;;;6247144;28;20056;-81
2023/06/12 03:23:02;;;;;;;7.38;5.63;;;18.50;81.30;;;;;;6247389;28;20148;-79
2023/06/12 03:26:04;;;;;;;8.90;5.50;;;18.40;82.20;;;;;;6248934;28;20042;-80
2023/06/12 03:29:06;;;;;;;8.73;5.57;;;18.30;81.90;;;;;;6259103;28;20140;-79
2023/06/12 03:32:09;;;;;;;9.40;5.63;;;18.30;83.80;;;;;;6265851;28;20492;-79
2023/06/12 03:35:13;;;;;;;7.53;5.10;;;18.40;82.70;;;;;;6251151;28;20603;-81
2023/06/12 03:38:14;;;;;;;9.35;5.82;;;18.40;82.80;;;;;;6256869;28;20049;-81
2023/06/12 03:41:17;;;;;;;7.88;5.20;;;18.30;83.20;;;;;;6262599;28;20041;-79
2023/06/12 03:44:18;;;;;;;9.90;6.00;;;18.30;83.40;;;;;;6250999;28;20049;-78
2023/06/12 03:47:21;;;;;;;7.18;5.28;;;18.20;83.40;;;;;;6254053;28;20045;-78
2023/06/12 03:50:25;;;;;;;8.77;5.28;;;18.20;83.80;;;;;;6251389;28;20049;-79
2023/06/12 03:53:27;;;;;;;8.57;5.45;;;18.30;84.70;;;;;;6251534;28;20049;-79
2023/06/12 03:56:28;;;;;;;6.65;5.30;;;18.30;84.10;;;;;;6250782;28;20048;-78
2023/06/12 03:59:30;;;;;;;7.57;5.50;;;18.20;83.80;;;;;;6251278;28;20045;-78
2023/06/12 04:02:32;;;;;;;11.05;5.68;;;18.30;84.00;;;;;;6251117;28;20411;-78
2023/06/12 04:05:37;;;;;;;7.50;5.40;;;18.30;83.90;;;;;;6252348;28;20041;-79
2023/06/12 04:08:39;;;;;;;8.07;5.97;;;18.20;85.10;;;;;;6275914;28;20052;-79
2023/06/12 04:11:41;;;;;;;6.78;5.10;;;18.30;84.40;;;;;;6269676;28;20045;-79
2023/06/12 04:14:43;;;;;;;7.78;5.10;;;18.30;84.80;;;;;;6250680;28;20480;-81
2023/06/12 04:17:45;;;;;;;7.90;5.07;;;18.30;84.70;;;;;;6252281;28;20056;-79
2023/06/12 04:20:49;;;;;;;7.85;5.97;;;18.30;84.50;;;;;;6255427;28;20041;-79
2023/06/12 04:23:51;;;;;;;8.98;5.75;;;18.30;85.00;;;;;;6250460;28;20045;-80
2023/06/12 04:26:54;;;;;;;9.75;5.68;;;18.30;85.30;;;;;;6250498;28;20073;-79
2023/06/12 04:29:57;;;;;;;7.93;5.68;;;18.30;84.90;;;;;;6250664;28;20045;-79
2023/06/12 04:32:59;;;;;;;7.68;5.65;;;18.30;84.90;;;;;;6250294;28;20463;-79
2023/06/12 04:36:04;;;;;;;7.80;6.13;;;18.30;86.00;;;;;;6250778;28;20052;-79
2023/06/12 04:39:11;;;;;;;8.38;6.05;;;18.30;87.00;;;;;;6249156;28;20064;-79
2023/06/12 04:42:16;;;;;;;8.25;5.50;;;18.40;85.70;;;;;;6250671;28;20066;-79
2023/06/12 04:45:21;;;;;;;9.32;5.80;;;18.40;86.60;;;;;;6249722;28;20580;-78
2023/06/12 04:48:23;;;;;;;9.63;5.57;;;18.30;86.80;;;;;;6250577;28;20041;-79
2023/06/12 04:51:27;;;;;;;7.80;5.60;;;18.30;87.20;;;;;;6250339;28;20045;-79
2023/06/12 04:54:31;;;;;;;9.07;6.05;;;18.30;87.80;;;;;;6249241;28;20053;-80
2023/06/12 04:57:33;;;;;;;8.93;5.97;;;18.30;87.80;;;;;;6250834;28;20068;-80
2023/06/12 05:00:35;;;;;;;7.88;5.60;;;18.20;88.70;;;;;;6249112;28;20041;-79
2023/06/12 05:03:38;;;;;;;8.23;5.93;;;18.40;87.90;;;;;;6250089;28;20049;-80
2023/06/12 05:06:42;;;;;;;7.30;5.35;;;18.40;88.20;;;;;;6249496;28;20506;-79
2023/06/12 05:09:44;;;;;;;11.07;6.20;;;18.50;87.80;;;;;;6249804;28;20046;-79
2023/06/12 05:12:46;;;;;;;11.32;6.57;;;18.60;88.50;;;;;;6249652;28;20403;-79
2023/06/12 05:15:48;;;;;;;10.18;6.13;;;18.70;89.20;;;;;;6249139;28;20053;-79
2023/06/12 05:18:50;;;;;;;8.07;6.10;;;18.70;90.00;;;;;;6249610;28;20514;-79
2023/06/12 05:21:53;;;;;;;8.15;5.72;;;18.70;89.40;;;;;;6249592;28;20049;-79
2023/06/12 05:24:55;;;;;;;10.20;6.57;;;18.70;89.80;;;;;;6248600;28;20052;-79
2023/06/12 05:27:57;;;;;;;10.02;5.70;;;18.80;89.90;;;;;;6248659;28;20124;-79
2023/06/12 05:30:59;;;;;;;8.55;6.07;;;18.80;90.00;;;;;;6248872;28;20077;-80
2023/06/12 05:34:01;;;;;;;10.45;5.90;;;18.90;89.20;;;;;;6248137;28;20502;-79
2023/06/12 05:37:05;;;;;;;9.95;6.38;;;19.10;89.40;;;;;;6249136;28;20081;-79
2023/06/12 05:40:09;;;;;;;8.60;5.50;;;19.10;89.60;;;;;;6248944;28;20046;-80
2023/06/12 05:43:11;;;;;;;8.43;5.55;;;19.10;90.30;;;;;;6248311;28;20446;-79
2023/06/12 05:46:14;;;;;;;8.63;5.63;;;19.20;90.20;;;;;;6248822;28;20188;-80
2023/06/12 05:49:16;;;;;;;6.95;5.43;;;19.30;90.20;;;;;;6247829;28;20053;-79
2023/06/12 05:52:19;;;;;;;8.65;5.47;;;19.40;90.70;;;;;;6248588;28;20058;-79
2023/06/12 05:55:21;;;;;;;10.00;5.40;;;19.50;90.00;;;;;;6248220;28;20522;-79
2023/06/12 05:58:23;;;;;;;9.38;6.22;;;19.60;90.30;;;;;;6248135;28;20060;-79
2023/06/12 06:01:25;;;;;;;11.23;6.22;;;19.60;90.70;;;;;;6248654;28;20137;-79
2023/06/12 06:04:27;;;;;;;9.10;5.57;;;19.70;90.80;;;;;;6248069;28;20046;-79
2023/06/12 06:07:32;;;;;;;10.57;5.85;;;19.80;91.00;;;;;;6247959;28;20049;-79
2023/06/12 06:10:34;;;;;;;9.65;5.82;;;19.80;91.00;;;;;;6248818;28;20060;-79
2023/06/12 06:13:36;;;;;;;9.80;6.22;;;19.90;90.50;;;;;;6247819;28;20125;-79
2023/06/12 06:16:38;;;;;;;8.82;5.80;;;20.00;90.60;;;;;;6248376;28;20045;-79
2023/06/12 06:19:40;;;;;;;8.65;5.97;;;20.20;90.30;;;;;;6248008;28;20045;-79
2023/06/12 06:22:43;;;;;;;7.20;5.78;;;20.20;88.90;;;;;;6248175;28;20475;-79
2023/06/12 06:25:45;;;;;;;9.02;5.60;;;20.20;87.60;;;;;;6248710;28;20046;-80
2023/06/12 06:28:47;;;;;;;8.13;5.50;;;20.30;87.10;;;;;;6247738;28;20049;-79
2023/06/12 06:31:49;;;;;;;7.65;5.53;;;20.40;87.50;;;;;;6247449;28;20053;-79
2023/06/12 06:34:51;;;;;;;9.68;5.32;;;20.50;86.40;;;;;;6247886;28;20042;-79
2023/06/12 06:37:54;;;;;;;10.18;5.55;;;20.60;86.40;;;;;;6247322;28;20054;-80
2023/06/12 06:40:56;;;;;;;9.48;5.85;;;20.60;87.10;;;;;;6247970;28;20049;-79
2023/06/12 06:43:58;;;;;;;8.10;5.68;;;20.50;86.20;;;;;;6247162;28;20057;-79
2023/06/12 06:46:59;;;;;;;8.80;5.25;;;20.60;85.80;;;;;;6247812;28;20056;-79
2023/06/12 06:50:02;;;;;;;6.88;5.57;;;20.70;85.30;;;;;;6247709;28;20483;-78
2023/06/12 06:53:05;;;;;;;7.80;5.30;;;20.80;84.20;;;;;;6247191;28;20438;-79
2023/06/12 06:56:07;;;;;;;9.68;5.63;;;20.80;85.80;;;;;;6247333;28;20506;-79
2023/06/12 06:59:08;;;;;;;7.80;5.50;;;20.80;84.00;;;;;;6248036;28;20060;-79
2023/06/12 07:02:10;;;;;;;10.32;5.60;;;20.90;84.30;;;;;;6252450;28;20041;-79
2023/06/12 07:05:13;;;;;;;8.23;5.47;;;20.90;84.80;;;;;;6252308;28;20053;-79
2023/06/12 07:08:17;;;;;;;9.07;5.47;;;21.00;83.80;;;;;;6252602;28;20045;-79
2023/06/12 07:11:18;;;;;;;8.05;5.38;;;21.10;84.40;;;;;;6249703;28;20053;-78
2023/06/12 07:14:20;;;;;;;8.77;5.30;;;21.20;82.60;;;;;;6228011;28;20053;-79
2023/06/12 07:17:22;;;;;;;6.50;4.90;;;21.20;82.90;;;;;;6250949;28;20041;-78
2023/06/12 07:20:24;;;;;;;7.93;5.13;;;21.30;81.80;;;;;;6252091;28;20068;-78
2023/06/12 07:23:27;;;;;;;9.70;5.57;;;21.40;81.30;;;;;;6252161;28;20056;-78
2023/06/12 07:26:29;;;;;;;8.00;4.80;;;21.40;81.10;;;;;;6251647;28;20044;-79
2023/06/12 07:29:31;;;;;;;6.80;5.38;;;21.50;80.30;;;;;;6251865;28;20048;-79
2023/06/12 07:32:34;;;;;;;6.97;5.10;;;21.50;79.50;;;;;;6235959;28;20060;-79
2023/06/12 07:35:35;;;;;;;7.80;5.25;;;21.50;79.10;;;;;;6251565;28;20411;-79
2023/06/12 07:38:39;;;;;;;6.90;4.82;;;21.50;78.90;;;;;;6251279;28;20042;-79
2023/06/12 07:41:42;;;;;;;9.68;4.63;;;21.60;77.80;;;;;;6251734;28;20100;-72
2023/06/12 07:44:44;;;;;;;8.30;4.50;;;21.80;79.90;;;;;;6251777;28;20057;-73
2023/06/12 07:47:47;;;;;;;6.90;4.60;;;21.90;79.20;;;;;;6251519;28;20405;-73
2023/06/12 07:50:49;;;;;;;9.35;4.75;;;22.00;78.20;;;;;;6251564;28;20399;-72
2023/06/12 07:53:52;;;;;;;8.50;5.22;;;22.10;76.70;;;;;;6251631;28;20506;-72
2023/06/12 07:56:54;;;;;;;7.28;4.72;;;22.20;76.10;;;;;;6251303;28;20041;-73
2023/06/12 07:59:56;;;;;;;7.30;4.40;;;22.20;76.60;;;;;;6251130;28;20380;-72
2023/06/12 08:02:58;;;;;;;6.75;4.75;;;22.20;77.60;;;;;;6251335;28;20056;-72
2023/06/12 08:06:00;;;;;;;7.80;5.03;;;22.20;74.70;;;;;;6250941;28;20049;-73
2023/06/12 08:09:03;;;;;;;7.88;4.82;;;22.30;74.80;;;;;;6251282;28;20049;-73
2023/06/12 08:12:06;;;;;;;9.43;4.70;;;22.50;77.30;;;;;;6250334;28;20049;-72
2023/06/12 08:15:11;;;;;;;8.68;4.82;;;22.50;73.90;;;;;;6251146;28;20053;-71
2023/06/12 08:18:12;;;;;;;7.18;4.75;;;22.60;72.70;;;;;;6250582;28;20140;-72
2023/06/12 08:21:14;;;;;;;6.63;4.63;;;22.70;75.20;;;;;;6251186;28;20053;-72
2023/06/12 08:24:17;;;;;;;6.95;4.18;;;22.80;73.70;;;;;;6240371;28;20068;-73
2023/06/12 08:27:19;;;;;;;6.63;4.35;;;22.90;70.10;;;;;;6223308;28;20400;-73
2023/06/12 08:30:21;;;;;;;6.30;4.25;;;22.90;69.40;;;;;;6224964;28;20054;-72
2023/06/12 08:33:23;;;;;;;5.63;3.90;;;22.90;66.90;;;;;;6247814;28;20049;-72
2023/06/12 08:36:25;;;;;;;6.93;4.28;;;23.00;65.80;;;;;;6247075;28;20483;-73
2023/06/12 08:39:28;;;;;;;6.55;4.63;;;23.10;65.70;;;;;;6247446;28;20058;-73
2023/06/12 08:42:31;;;;;;;6.00;4.65;;;23.20;65.30;;;;;;6247285;28;20084;-71
2023/06/12 08:45:36;;;;;;;6.88;4.25;;;23.20;66.70;;;;;;6247027;28;20419;-73
2023/06/12 08:48:38;;;;;;;6.05;4.38;;;23.20;63.40;;;;;;6246544;28;20061;-72
2023/06/12 08:51:42;;;;;;;6.00;4.20;;;23.20;64.10;;;;;;6246987;28;20384;-72
2023/06/12 08:54:48;;;;;;;6.72;4.15;;;23.30;64.90;;;;;;6247073;28;20098;-73
2023/06/12 08:57:51;;;;;;;5.55;4.07;;;23.30;63.10;;;;;;6246995;28;20049;-73
2023/06/12 09:00:53;;;;;;;6.30;4.50;;;23.40;64.20;;;;;;6246499;28;20049;-73
2023/06/12 09:04:00;;;;;;;10.77;4.47;;;23.40;64.50;;;;;;6246560;28;20053;-72
2023/06/12 09:07:03;;;;;;;6.68;5.20;;;23.50;63.50;;;;;;6247111;28;20063;-72
2023/06/12 09:10:07;;;;;;;;;;;23.40;64.10;;;;;;6246750;28;20049;-72
2023/06/12 09:13:10;;;;;;;6.65;4.15;;;23.50;63.60;;;;;;6221907;28;19936;-72
2023/06/12 09:16:13;;;;;;;6.40;5.00;;;23.60;63.00;;;;;;6226442;28;20060;-72
2023/06/12 09:19:15;;;;;;;7.75;4.32;;;23.80;63.70;;;;;;6246541;28;20053;-72
2023/06/12 09:22:17;;;;;;;6.30;4.72;;;23.80;64.30;;;;;;6245383;28;20479;-72
2023/06/12 09:25:22;;;;;;;6.50;4.75;;;23.80;63.90;;;;;;6245259;28;20041;-72
2023/06/12 09:28:25;;;;;;;7.75;5.15;;;23.70;63.90;;;;;;6245990;28;20331;-71
2023/06/12 09:31:27;;;;;;;5.97;4.65;;;23.80;64.10;;;;;;6246351;28;20053;-72
2023/06/12 09:34:31;;;;;;;7.63;4.60;;;23.90;63.60;;;;;;6246158;28;20076;-72
2023/06/12 09:37:33;;;;;;;8.48;4.60;;;24.00;64.00;;;;;;6245745;28;20077;-72
2023/06/12 09:40:39;;;;;;;7.18;4.35;;;24.00;62.30;;;;;;6245556;28;20056;-72
2023/06/12 09:43:41;;;;;;;7.85;4.47;;;24.10;63.40;;;;;;6245152;28;20162;-73
2023/06/12 09:46:43;;;;;;;8.15;4.68;;;24.10;61.80;;;;;;6245613;28;20057;-72
2023/06/12 09:49:46;;;;;;;6.35;4.63;;;24.20;61.90;;;;;;6245234;28;20049;-71
2023/06/12 09:52:49;;;;;;;7.28;4.68;;;24.20;62.60;;;;;;6245601;28;20049;-73
2023/06/12 09:55:52;;;;;;;8.10;4.60;;;24.20;62.30;;;;;;6244944;28;20056;-72
2023/06/12 09:58:56;;;;;;;8.25;4.88;;;24.30;61.10;;;;;;6245378;28;20506;-72
2023/06/12 10:02:04;;;;;;;9.18;3.97;;;24.20;60.80;;;;;;6245034;28;20056;-73
2023/06/12 10:05:10;;;;;;;5.95;4.43;;;24.20;61.00;;;;;;6244847;28;20049;-73
2023/06/12 10:08:12;;;;;;;8.00;4.95;;;24.30;59.90;;;;;;6245125;28;20049;-73
2023/06/12 10:11:16;;;;;;;7.07;4.82;;;24.40;60.00;;;;;;6242869;28;20061;-72
2023/06/12 10:14:19;;;;;;;7.68;4.70;;;24.40;60.70;;;;;;6244646;28;20543;-72
2023/06/12 10:17:22;;;;;;;6.53;4.00;;;24.40;59.90;;;;;;6244898;28;20128;-72
2023/06/12 10:20:26;;;;;;;5.90;4.30;;;24.50;60.30;;;;;;6244812;28;20053;-75
2023/06/12 10:23:28;;;;;;;5.57;4.57;;;24.40;60.20;;;;;;6244394;28;20057;-75
2023/06/12 10:26:32;;;;;;;8.13;4.78;;;24.50;61.00;;;;;;6244896;28;20056;-75
2023/06/12 10:29:37;;;;;;;7.38;4.63;;;24.50;59.20;;;;;;6244524;28;20049;-75
2023/06/12 10:32:41;;;;;;;6.18;4.43;;;24.50;58.80;;;;;;6244988;28;20049;-74
2023/06/12 10:35:43;;;;;;;7.68;4.82;;;24.40;58.70;;;;;;6243694;28;20075;-75
2023/06/12 10:38:45;;;;;;;6.75;4.90;;;24.40;59.10;;;;;;6244298;28;20052;-74
2023/06/12 10:42:00;;;;;;;5.93;4.50;;;24.40;59.00;;;;;;6244368;28;20095;-74
2023/06/12 10:45:03;;;;;;;6.90;4.50;;;24.40;60.90;;;;;;6244563;28;20132;-75
2023/06/12 10:48:14;;;;;;;7.38;4.30;;;24.40;57.90;;;;;;6244231;28;20052;-75
2023/06/12 10:51:16;;;;;;;6.28;4.25;;;24.40;58.60;;;;;;6244317;28;20057;-75
2023/06/12 10:54:26;;;;;;;6.78;4.32;;;24.50;58.70;;;;;;6244437;28;20049;-74
2023/06/12 10:57:30;;;;;;;7.65;4.30;;;24.50;57.00;;;;;;6244731;28;20053;-74
2023/06/12 11:00:35;;;;;;;7.97;4.32;;;24.60;57.50;;;;;;6244059;28;20049;-75
2023/06/12 11:03:42;;;;;;;7.32;4.30;;;24.60;56.50;;;;;;6241248;28;20059;-74
2023/06/12 11:06:47;;;;;;;7.63;4.40;;;24.60;56.50;;;;;;6243673;28;20132;-75
2023/06/12 11:09:49;;;;;;;5.15;3.97;;;24.60;56.90;;;;;;6244019;28;20590;-75
2023/06/12 11:12:52;;;;;;;7.30;4.47;;;24.80;56.80;;;;;;6241892;28;20458;-76
2023/06/12 11:15:54;;;;;;;;;;;24.70;55.60;;;;;;6243584;28;20315;-78
2023/06/12 11:19:07;;;;;;;5.97;4.43;;;24.80;56.70;;;;;;6243943;28;19932;-78
2023/06/12 11:22:09;;;;;;;7.40;4.95;;;24.80;56.40;;;;;;6243514;28;20423;-77
2023/06/12 11:25:11;;;;;;;8.18;4.95;;;24.90;56.40;;;;;;6243482;28;20050;-78
2023/06/12 11:28:16;;;;;;;8.25;4.40;;;24.90;56.00;;;;;;6241884;28;20046;-78
2023/06/12 11:31:18;;;;;;;8.70;4.70;;;25.10;56.10;;;;;;6243584;28;20061;-78
2023/06/12 11:34:20;;;;;;;9.30;4.15;;;25.30;56.10;;;;;;6243513;28;20058;-77
2023/06/12 11:37:25;;;;;;;8.25;4.07;;;25.30;53.50;;;;;;6243486;28;20045;-78
2023/06/12 11:40:28;;;;;;;6.15;4.35;;;25.40;54.30;;;;;;6243085;28;20254;-78
2023/06/12 11:43:31;;;;;;;6.75;4.32;;;25.50;55.10;;;;;;6243182;28;20423;-78
2023/06/12 11:46:33;;;;;;;7.40;4.50;;;25.60;55.00;;;;;;6244851;28;20057;-77
2023/06/12 11:49:36;;;;;;;5.78;4.35;;;25.60;54.20;;;;;;6247806;28;20049;-78
2023/06/12 11:52:41;;;;;;;7.57;4.38;;;25.50;53.10;;;;;;6247978;28;20054;-78
2023/06/12 11:55:47;;;;;;;7.97;4.07;;;25.50;53.30;;;;;;6247727;28;20072;-79
2023/06/12 11:58:52;;;;;;;9.90;4.45;;;25.50;53.80;;;;;;6247717;28;20053;-81
2023/06/12 12:01:59;;;;;;;6.25;4.05;;;25.60;53.90;;;;;;6247720;28;20492;-79
2023/06/12 12:05:05;;;;;;;7.57;4.38;;;25.90;55.50;;;;;;6247421;28;20042;-80
2023/06/12 12:08:08;;;;;;;6.50;4.10;;;26.00;54.10;;;;;;6247593;28;20052;-79
2023/06/12 12:11:21;;;;;;;6.43;4.30;;;26.20;54.70;;;;;;6245359;28;20064;-80
2023/06/12 12:14:25;;;;;;;;;;;26.30;52.50;;;;;;6248067;28;20057;-79
2023/06/12 12:17:32;;;;;;;8.43;4.43;;;26.30;53.00;;;;;;6247443;28;19978;-79
2023/06/12 12:20:35;;;;;;;5.85;4.43;;;26.50;54.80;;;;;;6247666;28;20081;-74
2023/06/12 12:23:37;;;;;;;7.00;4.30;;;26.50;52.00;;;;;;6246928;28;20041;-73
2023/06/12 12:26:42;;;;;;;6.22;4.10;;;26.60;52.80;;;;;;6249082;28;20045;-84
2023/06/12 12:29:46;;;;;;;6.63;4.10;;;26.50;51.20;;;;;;6249691;28;20132;-86
2023/06/12 12:32:51;;;;;;;7.60;4.25;;;26.50;52.60;;;;;;6249787;28;20514;-83
2023/06/12 12:35:53;;;;;;;6.63;4.07;;;26.40;51.50;;;;;;6250780;28;20053;-84
2023/06/12 12:38:55;;;;;;;6.18;4.10;;;26.60;51.40;;;;;;6249599;28;20056;-85
2023/06/12 12:41:57;;;;;;;6.32;4.28;;;26.70;52.00;;;;;;6249028;28;20518;-85
2023/06/12 12:45:00;;;;;;;5.88;3.83;;;26.80;50.30;;;;;;6251220;28;20399;-85
2023/06/12 12:48:02;;;;;;;6.00;4.00;;;26.90;50.70;;;;;;6251355;28;20053;-86
2023/06/12 12:51:04;;;;;;;8.43;3.88;;;27.10;49.60;;;;;;6248048;28;20411;-86
2023/06/12 12:54:07;;;;;;;6.25;3.90;;;27.20;48.80;;;;;;6248522;28;20061;-84
2023/06/12 12:57:09;;;;;;;6.22;4.25;;;27.30;48.80;;;;;;6247945;28;20057;-84
2023/06/12 13:00:17;;;;;;;6.87;4.20;;;27.40;49.80;;;;;;6247653;28;20233;-85
2023/06/12 13:03:19;;;;;;;7.38;4.10;;;27.40;49.10;;;;;;6247725;28;20045;-85
2023/06/12 13:06:21;;;;;;;7.18;4.00;;;27.50;49.60;;;;;;6247653;28;20060;-84
2023/06/12 13:09:22;;;;;;;5.38;3.88;;;27.60;48.60;;;;;;6247126;28;20053;-84
2023/06/12 13:12:24;;;;;;;5.45;3.80;;;27.70;47.40;;;;;;6245166;28;20045;-85
2023/06/12 13:15:28;;;;;;;6.10;3.95;;;27.80;46.90;;;;;;6247727;28;20061;-85
2023/06/12 13:18:30;;;;;;;5.55;3.80;;;27.90;48.20;;;;;;6249809;28;20042;-85
2023/06/12 13:21:32;;;;;;;6.43;4.18;;;28.00;48.00;;;;;;6255161;28;20403;-83
2023/06/12 13:24:33;;;;;;;6.45;3.72;;;28.10;47.30;;;;;;6246859;28;20056;-80
2023/06/12 13:27:35;;;;;;;7.22;3.80;;;28.00;47.60;;;;;;6246343;28;20049;-85
2023/06/12 13:30:38;;;;;;;7.18;3.83;;;28.20;47.50;;;;;;6245928;28;20049;-82
2023/06/12 13:33:40;;;;;;;10.02;3.50;;;28.30;46.30;;;;;;6245843;28;20081;-84
2023/06/12 13:36:42;;;;;;;5.65;3.85;;;28.10;45.40;;;;;;6245076;28;20364;-81
2023/06/12 13:39:44;;;;;;;5.38;3.80;;;28.10;45.70;;;;;;6246412;28;20049;-82
2023/06/12 13:42:47;;;;;;;7.80;3.78;;;28.10;45.20;;;;;;6246332;28;20053;-84
2023/06/12 13:45:55;;;;;;;6.32;3.80;;;28.40;45.60;;;;;;6246079;28;20045;-84
2023/06/12 13:48:57;;;;;;;5.60;3.50;;;28.60;45.80;;;;;;6245814;28;20050;-84
2023/06/12 13:51:58;;;;;;;6.03;3.53;;;28.70;45.70;;;;;;6245878;28;20190;-84
2023/06/12 13:55:00;;;;;;;5.45;3.55;;;28.70;46.10;;;;;;6245258;28;20516;-84
2023/06/12 13:58:08;;;;;;;5.43;3.83;;;28.80;46.80;;;;;;6245911;28;20053;-82
2023/06/12 14:01:11;;;;;;;6.90;3.80;;;29.00;46.10;;;;;;6246078;28;20187;-83
2023/06/12 14:04:12;;;;;;;6.95;4.10;;;29.10;46.20;;;;;;6245098;28;20506;-84
2023/06/12 14:07:15;;;;;;;6.75;3.50;;;29.10;45.70;;;;;;6245185;28;20046;-84
2023/06/12 14:10:17;;;;;;;5.85;3.72;;;29.00;45.40;;;;;;6244653;28;20045;-85
2023/06/12 14:13:19;;;;;;;6.97;3.97;;;29.20;45.00;;;;;;6243578;28;20052;-85
2023/06/12 14:16:22;;;;;;;8.65;4.35;;;29.00;44.30;;;;;;6245155;28;20535;-83
2023/06/12 14:19:24;;;;;;;6.63;3.78;;;28.90;45.00;;;;;;6246139;28;20115;-84
2023/06/12 14:22:26;;;;;;;8.10;4.00;;;29.00;44.30;;;;;;6245104;28;20049;-84
2023/06/12 14:25:29;;;;;;;6.73;3.77;;;29.10;44.70;;;;;;6245922;28;20326;-85
2023/06/12 14:28:30;;;;;;;7.78;3.85;;;29.40;44.60;;;;;;6246470;28;20056;-84
2023/06/12 14:31:34;;;;;;;6.15;4.00;;;29.50;43.70;;;;;;6246229;28;20057;-84
2023/06/12 14:34:36;;;;;;;7.15;3.90;;;29.60;43.90;;;;;;6250325;28;20058;-84
2023/06/12 14:37:37;;;;;;;5.75;4.07;;;29.70;43.50;;;;;;6244903;28;20045;-83
2023/06/12 14:40:40;;;;;;;7.05;3.72;;;29.50;43.60;;;;;;6244689;28;20470;-85
2023/06/12 14:43:42;;;;;;;5.33;4.03;;;29.60;43.30;;;;;;6245104;28;20068;-84
2023/06/12 14:46:45;;;;;;;8.57;4.07;;;29.60;44.50;;;;;;6245486;28;20312;-85
2023/06/12 14:49:47;;;;;;;7.32;3.80;;;29.70;44.80;;;;;;6245415;28;20050;-84
2023/06/12 14:52:49;;;;;;;7.53;4.18;;;29.80;44.00;;;;;;6256309;28;20098;-80
2023/06/12 14:55:51;;;;;;;6.97;4.20;;;30.00;43.00;;;;;;6269459;28;20064;-82
2023/06/12 14:58:53;;;;;;;6.25;4.05;;;29.90;42.80;;;;;;6257333;28;20041;-81
2023/06/12 15:01:56;;;;;;;7.10;4.30;;;29.90;43.50;;;;;;6247835;28;20497;-82
2023/06/12 15:04:58;;;;;;;8.32;4.22;;;30.00;45.80;;;;;;6269131;28;20060;-81
2023/06/12 15:08:00;;;;;;;10.55;7.05;;;30.00;42.90;;;;;;6262989;28;20057;-80
2023/06/12 15:11:02;;;;;;;6.03;4.37;;;29.90;44.60;;;;;;6250371;28;20056;-82
2023/06/12 15:14:04;;;;;;;7.05;3.75;;;30.00;44.40;;;;;;6265100;28;20053;-82
2023/06/12 15:17:07;;;;;;;6.40;4.03;;;30.20;44.30;;;;;;6255799;28;20554;-82
2023/06/12 15:20:09;;;;;;;6.22;4.03;;;30.10;44.10;;;;;;6268731;28;20491;-81
2023/06/12 15:23:11;;;;;;;6.85;4.03;;;30.20;43.30;;;;;;6271737;28;20196;-81
2023/06/12 15:26:13;;;;;;;6.28;4.30;;;30.20;43.30;;;;;;6273758;28;20053;-80
2023/06/12 15:29:15;;;;;;;13.27;4.63;;;30.20;43.80;;;;;;6254348;28;20120;-79
2023/06/12 15:32:18;;;;;;;7.70;4.30;;;29.60;54.10;;;;;;6254010;28;20451;-85
2023/06/12 15:35:20;;;;;;;7.30;4.65;;;29.60;46.40;;;;;;6256926;28;20048;-80
2023/06/12 15:38:38;;;;;;;10.20;4.25;;;29.80;46.80;;;;;;6248387;28;20060;-82
2023/06/12 15:41:40;;;;;;;5.60;3.92;;;29.90;44.00;;;;;;6225130;28;20060;-81
2023/06/12 15:44:42;;;;;;;6.67;4.37;;;30.10;43.80;;;;;;6248537;28;20050;-82
2023/06/12 15:47:45;;;;;;;6.43;4.50;;;30.20;43.20;;;;;;6247811;28;20818;-82
2023/06/12 15:50:47;;;;;;;6.40;4.32;;;30.20;43.20;;;;;;6248457;28;20045;-83
2023/06/12 15:53:49;;;;;;;7.25;4.22;;;30.00;43.40;;;;;;6248426;28;20057;-81
2023/06/12 15:56:52;;;;;;;7.38;4.40;;;30.20;43.00;;;;;;6248170;28;20379;-82